sensor_id;sensor_type;location;lat;lon;timestamp;P1;durP1;ratioP1;P2;durP2;ratioP2
9934;SDS011;5006;41.828;23.478;2023-02-18T00:00:53;16.63;;;11.90;;
9934;SDS011;5006;41.828;23.478;2023-02-18T00:02:00;13.98;;;9.90;;
9934;SDS011;5006;41.828;23.478;2023-02-18T00:03:05;13.50;;;9.15;;
9934;SDS011;5006;41.828;23.478;2023-02-18T00:04:10;10.85;;;8.23;;
9934;SDS011;5006;41.828;23.478;2023-02-18T00:05:15;12.63;;;8.77;;
9934;SDS011;5006;41.828;23.478;2023-02-18T00:06:21;10.40;;;7.90;;
9934;SDS011;5006;41.828;23.478;2023-02-18T00:07:28;10.07;;;7.75;;
9934;SDS011;5006;41.828;23.478;2023-02-18T00:08:38;11.80;;;8.25;;
9934;SDS011;5006;41.828;23.478;2023-02-18T00:09:44;10.65;;;8.25;;
9934;SDS011;5006;41.828;23.478;2023-02-18T00:10:49;12.77;;;7.80;;
9934;SDS011;5006;41.828;23.478;2023-02-18T00:11:54;10.98;;;7.53;;
9934;SDS011;5006;41.828;23.478;2023-02-18T00:13:00;9.65;;;7.15;;
9934;SDS011;5006;41.828;23.478;2023-02-18T00:14:05;9.57;;;5.75;;
9934;SDS011;5006;41.828;23.478;2023-02-18T00:15:12;9.98;;;6.22;;
9934;SDS011;5006;41.828;23.478;2023-02-18T00:16:17;6.40;;;5.18;;
9934;SDS011;5006;41.828;23.478;2023-02-18T00:17:23;6.80;;;4.72;;
9934;SDS011;5006;41.828;23.478;2023-02-18T00:18:28;5.13;;;3.88;;
9934;SDS011;5006;41.828;23.478;2023-02-18T00:19:35;4.55;;;3.10;;
9934;SDS011;5006;41.828;23.478;2023-02-18T00:20:40;3.30;;;2.50;;
9934;SDS011;5006;41.828;23.478;2023-02-18T00:21:45;3.22;;;2.28;;
9934;SDS011;5006;41.828;23.478;2023-02-18T00:22:51;3.08;;;1.80;;
9934;SDS011;5006;41.828;23.478;2023-02-18T00:23:56;2.90;;;1.23;;
9934;SDS011;5006;41.828;23.478;2023-02-18T00:25:03;2.47;;;1.20;;
9934;SDS011;5006;41.828;23.478;2023-02-18T00:26:11;2.58;;;1.30;;
9934;SDS011;5006;41.828;23.478;2023-02-18T00:27:18;2.05;;;1.20;;
9934;SDS011;5006;41.828;23.478;2023-02-18T00:28:23;1.60;;;1.15;;
9934;SDS011;5006;41.828;23.478;2023-02-18T00:29:28;1.98;;;1.30;;
9934;SDS011;5006;41.828;23.478;2023-02-18T00:30:33;2.30;;;1.40;;
9934;SDS011;5006;41.828;23.478;2023-02-18T00:31:39;1.38;;;1.13;;
9934;SDS011;5006;41.828;23.478;2023-02-18T00:32:44;2.38;;;1.00;;
9934;SDS011;5006;41.828;23.478;2023-02-18T00:33:50;1.77;;;1.08;;
9934;SDS011;5006;41.828;23.478;2023-02-18T00:34:55;1.50;;;0.90;;
9934;SDS011;5006;41.828;23.478;2023-02-18T00:36:01;2.72;;;1.02;;
9934;SDS011;5006;41.828;23.478;2023-02-18T00:37:06;2.47;;;1.20;;
9934;SDS011;5006;41.828;23.478;2023-02-18T00:38:12;2.00;;;1.05;;
9934;SDS011;5006;41.828;23.478;2023-02-18T00:39:17;3.08;;;1.10;;
9934;SDS011;5006;41.828;23.478;2023-02-18T00:40:24;1.70;;;1.00;;
9934;SDS011;5006;41.828;23.478;2023-02-18T00:41:30;1.42;;;0.80;;
9934;SDS011;5006;41.828;23.478;2023-02-18T00:42:36;2.72;;;1.05;;
9934;SDS011;5006;41.828;23.478;2023-02-18T00:43:41;2.17;;;1.02;;
9934;SDS011;5006;41.828;23.478;2023-02-18T00:44:47;1.95;;;0.90;;
9934;SDS011;5006;41.828;23.478;2023-02-18T00:45:52;1.73;;;1.10;;
9934;SDS011;5006;41.828;23.478;2023-02-18T00:46:58;1.17;;;0.90;;
9934;SDS011;5006;41.828;23.478;2023-02-18T00:48:03;2.63;;;1.00;;
9934;SDS011;5006;41.828;23.478;2023-02-18T00:49:09;3.03;;;0.90;;
9934;SDS011;5006;41.828;23.478;2023-02-18T00:50:14;2.17;;;0.95;;
9934;SDS011;5006;41.828;23.478;2023-02-18T00:51:19;1.27;;;1.10;;
9934;SDS011;5006;41.828;23.478;2023-02-18T00:52:25;1.25;;;0.90;;
9934;SDS011;5006;41.828;23.478;2023-02-18T00:53:31;1.10;;;0.90;;
9934;SDS011;5006;41.828;23.478;2023-02-18T00:54:36;2.25;;;0.90;;
9934;SDS011;5006;41.828;23.478;2023-02-18T00:55:44;1.48;;;0.90;;
9934;SDS011;5006;41.828;23.478;2023-02-18T00:56:50;1.48;;;1.00;;
9934;SDS011;5006;41.828;23.478;2023-02-18T00:57:57;1.63;;;1.10;;
9934;SDS011;5006;41.828;23.478;2023-02-18T00:59:01;2.20;;;1.10;;
9934;SDS011;5006;41.828;23.478;2023-02-18T01:00:07;1.27;;;1.02;;
9934;SDS011;5006;41.828;23.478;2023-02-18T01:01:13;2.35;;;1.27;;
9934;SDS011;5006;41.828;23.478;2023-02-18T01:02:19;2.70;;;1.05;;
9934;SDS011;5006;41.828;23.478;2023-02-18T01:03:24;1.80;;;0.90;;
9934;SDS011;5006;41.828;23.478;2023-02-18T01:04:29;2.38;;;1.13;;
9934;SDS011;5006;41.828;23.478;2023-02-18T01:05:35;1.80;;;1.20;;
9934;SDS011;5006;41.828;23.478;2023-02-18T01:06:43;16.83;;;12.20;;
9934;SDS011;5006;41.828;23.478;2023-02-18T01:07:48;12.32;;;8.68;;
9934;SDS011;5006;41.828;23.478;2023-02-18T01:08:54;9.27;;;5.93;;
9934;SDS011;5006;41.828;23.478;2023-02-18T01:09:59;7.00;;;5.07;;
9934;SDS011;5006;41.828;23.478;2023-02-18T01:11:07;7.55;;;4.80;;
9934;SDS011;5006;41.828;23.478;2023-02-18T01:12:13;11.10;;;6.50;;
9934;SDS011;5006;41.828;23.478;2023-02-18T01:13:18;20.52;;;15.07;;
9934;SDS011;5006;41.828;23.478;2023-02-18T01:14:24;21.17;;;12.80;;
9934;SDS011;5006;41.828;23.478;2023-02-18T01:15:30;12.80;;;8.75;;
9934;SDS011;5006;41.828;23.478;2023-02-18T01:16:34;9.13;;;6.70;;
9934;SDS011;5006;41.828;23.478;2023-02-18T01:17:40;15.98;;;11.07;;
9934;SDS011;5006;41.828;23.478;2023-02-18T01:18:45;14.57;;;9.85;;
9934;SDS011;5006;41.828;23.478;2023-02-18T01:19:51;10.18;;;8.57;;
9934;SDS011;5006;41.828;23.478;2023-02-18T01:20:56;10.57;;;7.90;;
9934;SDS011;5006;41.828;23.478;2023-02-18T01:22:02;11.65;;;9.30;;
9934;SDS011;5006;41.828;23.478;2023-02-18T01:23:09;10.82;;;8.20;;
9934;SDS011;5006;41.828;23.478;2023-02-18T01:24:15;9.57;;;7.70;;
9934;SDS011;5006;41.828;23.478;2023-02-18T01:25:20;12.32;;;9.95;;
9934;SDS011;5006;41.828;23.478;2023-02-18T01:26:27;15.10;;;11.63;;
9934;SDS011;5006;41.828;23.478;2023-02-18T01:27:32;16.20;;;11.73;;
9934;SDS011;5006;41.828;23.478;2023-02-18T01:28:38;12.75;;;8.55;;
9934;SDS011;5006;41.828;23.478;2023-02-18T01:29:43;10.45;;;7.22;;
9934;SDS011;5006;41.828;23.478;2023-02-18T01:30:49;10.32;;;6.95;;
9934;SDS011;5006;41.828;23.478;2023-02-18T01:31:55;13.60;;;7.18;;
9934;SDS011;5006;41.828;23.478;2023-02-18T01:33:00;11.40;;;7.22;;
9934;SDS011;5006;41.828;23.478;2023-02-18T01:34:05;9.35;;;6.20;;
9934;SDS011;5006;41.828;23.478;2023-02-18T01:35:11;12.70;;;7.47;;
9934;SDS011;5006;41.828;23.478;2023-02-18T01:36:17;10.52;;;6.18;;
9934;SDS011;5006;41.828;23.478;2023-02-18T01:37:22;5.82;;;4.30;;
9934;SDS011;5006;41.828;23.478;2023-02-18T01:38:28;5.88;;;2.83;;
9934;SDS011;5006;41.828;23.478;2023-02-18T01:39:34;4.53;;;3.35;;
9934;SDS011;5006;41.828;23.478;2023-02-18T01:40:43;5.90;;;3.83;;
9934;SDS011;5006;41.828;23.478;2023-02-18T01:41:52;4.97;;;2.97;;
9934;SDS011;5006;41.828;23.478;2023-02-18T01:42:57;20.73;;;13.07;;
9934;SDS011;5006;41.828;23.478;2023-02-18T01:44:15;8.95;;;6.32;;
9934;SDS011;5006;41.828;23.478;2023-02-18T01:45:39;9.38;;;6.18;;
9934;SDS011;5006;41.828;23.478;2023-02-18T01:46:53;8.32;;;5.00;;
9934;SDS011;5006;41.828;23.478;2023-02-18T01:48:00;8.85;;;4.43;;
9934;SDS011;5006;41.828;23.478;2023-02-18T01:49:09;7.05;;;4.57;;
9934;SDS011;5006;41.828;23.478;2023-02-18T01:50:18;5.28;;;4.22;;
9934;SDS011;5006;41.828;23.478;2023-02-18T01:51:23;4.70;;;3.97;;
9934;SDS011;5006;41.828;23.478;2023-02-18T01:52:31;3.40;;;1.63;;
9934;SDS011;5006;41.828;23.478;2023-02-18T01:53:39;4.35;;;1.75;;
9934;SDS011;5006;41.828;23.478;2023-02-18T01:54:50;4.35;;;2.20;;
9934;SDS011;5006;41.828;23.478;2023-02-18T01:55:59;7.07;;;3.45;;
9934;SDS011;5006;41.828;23.478;2023-02-18T01:57:09;5.55;;;3.20;;
9934;SDS011;5006;41.828;23.478;2023-02-18T01:58:16;7.40;;;5.35;;
9934;SDS011;5006;41.828;23.478;2023-02-18T01:59:24;8.27;;;5.32;;
9934;SDS011;5006;41.828;23.478;2023-02-18T02:00:32;7.38;;;5.15;;
9934;SDS011;5006;41.828;23.478;2023-02-18T02:01:37;7.80;;;5.20;;
9934;SDS011;5006;41.828;23.478;2023-02-18T02:02:45;5.10;;;3.63;;
9934;SDS011;5006;41.828;23.478;2023-02-18T02:03:52;5.40;;;3.70;;
9934;SDS011;5006;41.828;23.478;2023-02-18T02:04:58;4.50;;;3.63;;
9934;SDS011;5006;41.828;23.478;2023-02-18T02:06:05;4.05;;;3.30;;
9934;SDS011;5006;41.828;23.478;2023-02-18T02:07:18;4.25;;;2.50;;
9934;SDS011;5006;41.828;23.478;2023-02-18T02:08:25;3.03;;;2.08;;
9934;SDS011;5006;41.828;23.478;2023-02-18T02:09:32;3.78;;;2.40;;
9934;SDS011;5006;41.828;23.478;2023-02-18T02:10:41;5.50;;;3.80;;
9934;SDS011;5006;41.828;23.478;2023-02-18T02:12:09;6.32;;;4.03;;
9934;SDS011;5006;41.828;23.478;2023-02-18T02:13:27;7.88;;;4.45;;
9934;SDS011;5006;41.828;23.478;2023-02-18T02:14:48;3.58;;;2.33;;
9934;SDS011;5006;41.828;23.478;2023-02-18T02:16:05;4.35;;;1.90;;
9934;SDS011;5006;41.828;23.478;2023-02-18T02:17:16;3.10;;;2.00;;
9934;SDS011;5006;41.828;23.478;2023-02-18T02:18:38;3.22;;;1.42;;
9934;SDS011;5006;41.828;23.478;2023-02-18T02:20:04;3.63;;;1.55;;
9934;SDS011;5006;41.828;23.478;2023-02-18T02:23:26;7.15;;;4.10;;
9934;SDS011;5006;41.828;23.478;2023-02-18T02:24:58;3.03;;;2.30;;
9934;SDS011;5006;41.828;23.478;2023-02-18T02:28:29;2.72;;;1.60;;
9934;SDS011;5006;41.828;23.478;2023-02-18T02:30:00;2.90;;;1.50;;
9934;SDS011;5006;41.828;23.478;2023-02-18T02:33:10;2.95;;;1.33;;
9934;SDS011;5006;41.828;23.478;2023-02-18T02:34:48;3.10;;;2.17;;
9934;SDS011;5006;41.828;23.478;2023-02-18T02:35:59;11.45;;;7.57;;
9934;SDS011;5006;41.828;23.478;2023-02-18T02:37:12;9.40;;;6.90;;
9934;SDS011;5006;41.828;23.478;2023-02-18T02:38:21;10.38;;;7.85;;
9934;SDS011;5006;41.828;23.478;2023-02-18T02:39:35;13.82;;;9.80;;
9934;SDS011;5006;41.828;23.478;2023-02-18T02:40:47;19.17;;;13.98;;
9934;SDS011;5006;41.828;23.478;2023-02-18T02:42:04;27.73;;;20.10;;
9934;SDS011;5006;41.828;23.478;2023-02-18T02:43:24;29.55;;;19.20;;
9934;SDS011;5006;41.828;23.478;2023-02-18T02:44:37;33.17;;;22.65;;
9934;SDS011;5006;41.828;23.478;2023-02-18T02:45:53;28.92;;;21.05;;
9934;SDS011;5006;41.828;23.478;2023-02-18T02:47:04;28.95;;;20.98;;
9934;SDS011;5006;41.828;23.478;2023-02-18T02:48:21;30.13;;;20.55;;
9934;SDS011;5006;41.828;23.478;2023-02-18T02:49:33;32.08;;;21.30;;
9934;SDS011;5006;41.828;23.478;2023-02-18T02:50:50;32.33;;;21.33;;
9934;SDS011;5006;41.828;23.478;2023-02-18T02:51:58;28.63;;;19.35;;
9934;SDS011;5006;41.828;23.478;2023-02-18T02:53:11;27.80;;;19.55;;
9934;SDS011;5006;41.828;23.478;2023-02-18T02:54:21;32.53;;;19.33;;
9934;SDS011;5006;41.828;23.478;2023-02-18T02:55:27;26.38;;;18.48;;
9934;SDS011;5006;41.828;23.478;2023-02-18T02:56:34;26.60;;;17.15;;
9934;SDS011;5006;41.828;23.478;2023-02-18T02:57:43;24.15;;;15.98;;
9934;SDS011;5006;41.828;23.478;2023-02-18T02:58:57;25.13;;;17.45;;
9934;SDS011;5006;41.828;23.478;2023-02-18T03:00:11;22.45;;;15.85;;
9934;SDS011;5006;41.828;23.478;2023-02-18T03:01:24;22.05;;;14.73;;
9934;SDS011;5006;41.828;23.478;2023-02-18T03:02:43;22.23;;;15.18;;
9934;SDS011;5006;41.828;23.478;2023-02-18T03:04:19;20.88;;;14.63;;
9934;SDS011;5006;41.828;23.478;2023-02-18T03:05:43;22.05;;;16.38;;
9934;SDS011;5006;41.828;23.478;2023-02-18T03:07:01;23.73;;;16.52;;
9934;SDS011;5006;41.828;23.478;2023-02-18T03:08:35;19.35;;;11.05;;
9934;SDS011;5006;41.828;23.478;2023-02-18T03:09:56;20.75;;;12.88;;
9934;SDS011;5006;41.828;23.478;2023-02-18T03:11:14;19.70;;;12.20;;
9934;SDS011;5006;41.828;23.478;2023-02-18T03:12:23;14.98;;;9.43;;
9934;SDS011;5006;41.828;23.478;2023-02-18T03:13:39;9.02;;;5.95;;
9934;SDS011;5006;41.828;23.478;2023-02-18T03:14:58;9.00;;;4.93;;
9934;SDS011;5006;41.828;23.478;2023-02-18T03:16:11;5.47;;;3.92;;
9934;SDS011;5006;41.828;23.478;2023-02-18T03:17:23;6.63;;;3.50;;
9934;SDS011;5006;41.828;23.478;2023-02-18T03:18:32;4.55;;;2.85;;
9934;SDS011;5006;41.828;23.478;2023-02-18T03:19:44;6.22;;;3.45;;
9934;SDS011;5006;41.828;23.478;2023-02-18T03:20:55;5.93;;;3.63;;
9934;SDS011;5006;41.828;23.478;2023-02-18T03:22:04;5.90;;;3.33;;
9934;SDS011;5006;41.828;23.478;2023-02-18T03:23:13;4.25;;;2.80;;
9934;SDS011;5006;41.828;23.478;2023-02-18T03:24:26;4.30;;;2.90;;
9934;SDS011;5006;41.828;23.478;2023-02-18T03:25:33;4.88;;;2.50;;
9934;SDS011;5006;41.828;23.478;2023-02-18T03:26:43;4.43;;;3.08;;
9934;SDS011;5006;41.828;23.478;2023-02-18T03:27:51;6.70;;;2.72;;
9934;SDS011;5006;41.828;23.478;2023-02-18T03:29:02;3.78;;;2.45;;
9934;SDS011;5006;41.828;23.478;2023-02-18T03:30:12;2.95;;;1.80;;
9934;SDS011;5006;41.828;23.478;2023-02-18T03:31:22;2.63;;;1.80;;
9934;SDS011;5006;41.828;23.478;2023-02-18T03:32:30;4.25;;;1.85;;
9934;SDS011;5006;41.828;23.478;2023-02-18T03:33:39;5.38;;;1.98;;
9934;SDS011;5006;41.828;23.478;2023-02-18T03:34:51;4.30;;;2.03;;
9934;SDS011;5006;41.828;23.478;2023-02-18T03:36:01;6.13;;;3.90;;
9934;SDS011;5006;41.828;23.478;2023-02-18T03:37:08;3.00;;;2.03;;
9934;SDS011;5006;41.828;23.478;2023-02-18T03:38:15;4.22;;;2.85;;
9934;SDS011;5006;41.828;23.478;2023-02-18T03:39:25;3.15;;;1.90;;
9934;SDS011;5006;41.828;23.478;2023-02-18T03:40:32;40.00;;;26.98;;
9934;SDS011;5006;41.828;23.478;2023-02-18T03:41:39;40.90;;;27.92;;
9934;SDS011;5006;41.828;23.478;2023-02-18T03:42:43;41.25;;;29.63;;
9934;SDS011;5006;41.828;23.478;2023-02-18T03:43:49;43.15;;;31.65;;
9934;SDS011;5006;41.828;23.478;2023-02-18T03:44:55;53.75;;;34.75;;
9934;SDS011;5006;41.828;23.478;2023-02-18T03:46:01;38.33;;;29.42;;
9934;SDS011;5006;41.828;23.478;2023-02-18T03:47:06;38.58;;;24.83;;
9934;SDS011;5006;41.828;23.478;2023-02-18T03:48:13;49.53;;;30.67;;
9934;SDS011;5006;41.828;23.478;2023-02-18T03:49:18;50.85;;;35.08;;
9934;SDS011;5006;41.828;23.478;2023-02-18T03:50:24;53.17;;;33.80;;
9934;SDS011;5006;41.828;23.478;2023-02-18T03:51:31;48.95;;;32.08;;
9934;SDS011;5006;41.828;23.478;2023-02-18T03:52:37;52.25;;;31.05;;
9934;SDS011;5006;41.828;23.478;2023-02-18T03:53:42;45.25;;;28.73;;
9934;SDS011;5006;41.828;23.478;2023-02-18T03:54:49;37.25;;;25.45;;
9934;SDS011;5006;41.828;23.478;2023-02-18T03:55:54;37.15;;;23.98;;
9934;SDS011;5006;41.828;23.478;2023-02-18T03:57:00;31.15;;;22.85;;
9934;SDS011;5006;41.828;23.478;2023-02-18T03:58:04;34.85;;;22.65;;
9934;SDS011;5006;41.828;23.478;2023-02-18T03:59:10;31.83;;;19.80;;
9934;SDS011;5006;41.828;23.478;2023-02-18T04:00:16;27.92;;;19.48;;
9934;SDS011;5006;41.828;23.478;2023-02-18T04:01:22;21.73;;;15.25;;
9934;SDS011;5006;41.828;23.478;2023-02-18T04:02:27;23.95;;;15.35;;
9934;SDS011;5006;41.828;23.478;2023-02-18T04:03:33;23.77;;;16.42;;
9934;SDS011;5006;41.828;23.478;2023-02-18T04:04:37;24.75;;;16.98;;
9934;SDS011;5006;41.828;23.478;2023-02-18T04:05:43;19.77;;;13.77;;
9934;SDS011;5006;41.828;23.478;2023-02-18T04:06:49;17.95;;;12.02;;
9934;SDS011;5006;41.828;23.478;2023-02-18T04:07:55;17.85;;;12.23;;
9934;SDS011;5006;41.828;23.478;2023-02-18T04:09:00;17.27;;;11.48;;
9934;SDS011;5006;41.828;23.478;2023-02-18T04:10:11;22.77;;;18.95;;
9934;SDS011;5006;41.828;23.478;2023-02-18T04:11:16;17.13;;;14.90;;
9934;SDS011;5006;41.828;23.478;2023-02-18T04:12:21;13.63;;;10.25;;
9934;SDS011;5006;41.828;23.478;2023-02-18T04:13:28;15.82;;;11.15;;
9934;SDS011;5006;41.828;23.478;2023-02-18T04:14:34;13.73;;;10.10;;
9934;SDS011;5006;41.828;23.478;2023-02-18T04:15:38;12.52;;;8.98;;
9934;SDS011;5006;41.828;23.478;2023-02-18T04:16:44;11.38;;;8.38;;
9934;SDS011;5006;41.828;23.478;2023-02-18T04:17:49;10.40;;;6.90;;
9934;SDS011;5006;41.828;23.478;2023-02-18T04:18:54;9.23;;;6.90;;
9934;SDS011;5006;41.828;23.478;2023-02-18T04:19:59;10.02;;;6.75;;
9934;SDS011;5006;41.828;23.478;2023-02-18T04:21:05;6.78;;;5.00;;
9934;SDS011;5006;41.828;23.478;2023-02-18T04:22:11;6.90;;;4.43;;
9934;SDS011;5006;41.828;23.478;2023-02-18T04:23:17;6.88;;;4.78;;
9934;SDS011;5006;41.828;23.478;2023-02-18T04:24:21;7.45;;;4.38;;
9934;SDS011;5006;41.828;23.478;2023-02-18T04:25:27;4.53;;;3.50;;
9934;SDS011;5006;41.828;23.478;2023-02-18T04:27:37;4.53;;;3.45;;
9934;SDS011;5006;41.828;23.478;2023-02-18T04:28:43;4.03;;;2.83;;
9934;SDS011;5006;41.828;23.478;2023-02-18T04:29:48;41.08;;;27.52;;
9934;SDS011;5006;41.828;23.478;2023-02-18T04:30:53;30.67;;;20.10;;
9934;SDS011;5006;41.828;23.478;2023-02-18T04:31:58;14.57;;;9.02;;
9934;SDS011;5006;41.828;23.478;2023-02-18T04:33:04;12.10;;;9.13;;
9934;SDS011;5006;41.828;23.478;2023-02-18T04:34:08;10.60;;;7.60;;
9934;SDS011;5006;41.828;23.478;2023-02-18T04:35:14;8.73;;;5.95;;
9934;SDS011;5006;41.828;23.478;2023-02-18T04:36:19;10.25;;;6.15;;
9934;SDS011;5006;41.828;23.478;2023-02-18T04:37:26;8.30;;;6.18;;
9934;SDS011;5006;41.828;23.478;2023-02-18T04:38:31;8.15;;;5.72;;
9934;SDS011;5006;41.828;23.478;2023-02-18T04:39:36;8.93;;;5.63;;
9934;SDS011;5006;41.828;23.478;2023-02-18T04:40:41;7.82;;;4.97;;
9934;SDS011;5006;41.828;23.478;2023-02-18T04:41:45;7.20;;;5.50;;
9934;SDS011;5006;41.828;23.478;2023-02-18T04:42:51;7.07;;;5.20;;
9934;SDS011;5006;41.828;23.478;2023-02-18T04:43:56;8.77;;;5.03;;
9934;SDS011;5006;41.828;23.478;2023-02-18T04:45:02;7.28;;;4.43;;
9934;SDS011;5006;41.828;23.478;2023-02-18T04:46:07;6.18;;;4.00;;
9934;SDS011;5006;41.828;23.478;2023-02-18T04:47:13;4.70;;;3.67;;
9934;SDS011;5006;41.828;23.478;2023-02-18T04:48:17;4.43;;;2.50;;
9934;SDS011;5006;41.828;23.478;2023-02-18T04:49:23;4.60;;;2.70;;
9934;SDS011;5006;41.828;23.478;2023-02-18T04:50:28;3.53;;;2.45;;
9934;SDS011;5006;41.828;23.478;2023-02-18T04:51:33;4.35;;;3.25;;
9934;SDS011;5006;41.828;23.478;2023-02-18T04:52:40;4.90;;;2.95;;
9934;SDS011;5006;41.828;23.478;2023-02-18T04:53:45;4.03;;;3.22;;
9934;SDS011;5006;41.828;23.478;2023-02-18T04:54:51;3.45;;;2.47;;
9934;SDS011;5006;41.828;23.478;2023-02-18T04:55:56;5.57;;;3.20;;
9934;SDS011;5006;41.828;23.478;2023-02-18T04:57:02;7.88;;;4.95;;
9934;SDS011;5006;41.828;23.478;2023-02-18T04:58:07;6.22;;;4.15;;
9934;SDS011;5006;41.828;23.478;2023-02-18T04:59:14;4.68;;;3.80;;
9934;SDS011;5006;41.828;23.478;2023-02-18T05:00:19;4.97;;;3.45;;
9934;SDS011;5006;41.828;23.478;2023-02-18T05:01:25;5.63;;;3.90;;
9934;SDS011;5006;41.828;23.478;2023-02-18T05:02:30;6.15;;;3.75;;
9934;SDS011;5006;41.828;23.478;2023-02-18T05:03:35;3.63;;;3.25;;
9934;SDS011;5006;41.828;23.478;2023-02-18T05:04:40;3.03;;;2.13;;
9934;SDS011;5006;41.828;23.478;2023-02-18T05:05:45;3.00;;;2.00;;
9934;SDS011;5006;41.828;23.478;2023-02-18T05:06:50;3.53;;;2.58;;
9934;SDS011;5006;41.828;23.478;2023-02-18T05:07:57;5.32;;;3.55;;
9934;SDS011;5006;41.828;23.478;2023-02-18T05:09:02;4.80;;;3.70;;
9934;SDS011;5006;41.828;23.478;2023-02-18T05:10:08;3.67;;;2.80;;
9934;SDS011;5006;41.828;23.478;2023-02-18T05:11:14;5.25;;;2.78;;
9934;SDS011;5006;41.828;23.478;2023-02-18T05:12:20;2.78;;;2.10;;
9934;SDS011;5006;41.828;23.478;2023-02-18T05:13:25;5.20;;;2.70;;
9934;SDS011;5006;41.828;23.478;2023-02-18T05:14:31;3.88;;;2.30;;
9934;SDS011;5006;41.828;23.478;2023-02-18T05:15:35;4.72;;;2.83;;
9934;SDS011;5006;41.828;23.478;2023-02-18T05:16:41;5.18;;;2.00;;
9934;SDS011;5006;41.828;23.478;2023-02-18T05:17:45;3.00;;;1.98;;
9934;SDS011;5006;41.828;23.478;2023-02-18T05:18:51;3.10;;;1.77;;
9934;SDS011;5006;41.828;23.478;2023-02-18T05:19:56;2.90;;;1.77;;
9934;SDS011;5006;41.828;23.478;2023-02-18T05:21:02;3.97;;;2.38;;
9934;SDS011;5006;41.828;23.478;2023-02-18T05:22:07;3.08;;;2.17;;
9934;SDS011;5006;41.828;23.478;2023-02-18T05:23:14;5.32;;;3.90;;
9934;SDS011;5006;41.828;23.478;2023-02-18T05:24:19;4.63;;;3.10;;
9934;SDS011;5006;41.828;23.478;2023-02-18T05:25:26;3.72;;;2.33;;
9934;SDS011;5006;41.828;23.478;2023-02-18T05:26:30;4.97;;;4.30;;
9934;SDS011;5006;41.828;23.478;2023-02-18T05:27:36;3.95;;;3.25;;
9934;SDS011;5006;41.828;23.478;2023-02-18T05:28:41;4.57;;;3.25;;
9934;SDS011;5006;41.828;23.478;2023-02-18T05:29:46;4.22;;;2.97;;
9934;SDS011;5006;41.828;23.478;2023-02-18T05:30:51;5.07;;;4.10;;
9934;SDS011;5006;41.828;23.478;2023-02-18T05:31:56;7.07;;;4.43;;
9934;SDS011;5006;41.828;23.478;2023-02-18T05:33:01;4.53;;;3.92;;
9934;SDS011;5006;41.828;23.478;2023-02-18T05:34:08;4.32;;;2.50;;
9934;SDS011;5006;41.828;23.478;2023-02-18T05:35:13;5.57;;;4.00;;
9934;SDS011;5006;41.828;23.478;2023-02-18T05:36:18;4.88;;;3.60;;
9934;SDS011;5006;41.828;23.478;2023-02-18T05:37:23;3.28;;;2.75;;
9934;SDS011;5006;41.828;23.478;2023-02-18T05:38:30;5.13;;;3.58;;
9934;SDS011;5006;41.828;23.478;2023-02-18T05:39:34;8.20;;;4.80;;
9934;SDS011;5006;41.828;23.478;2023-02-18T05:40:40;4.95;;;3.70;;
9934;SDS011;5006;41.828;23.478;2023-02-18T05:41:45;3.67;;;2.85;;
9934;SDS011;5006;41.828;23.478;2023-02-18T05:42:50;6.03;;;3.92;;
9934;SDS011;5006;41.828;23.478;2023-02-18T05:43:55;6.35;;;4.85;;
9934;SDS011;5006;41.828;23.478;2023-02-18T05:45:18;5.78;;;4.80;;
9934;SDS011;5006;41.828;23.478;2023-02-18T05:46:24;7.22;;;5.10;;
9934;SDS011;5006;41.828;23.478;2023-02-18T05:47:29;3.97;;;3.53;;
9934;SDS011;5006;41.828;23.478;2023-02-18T05:48:35;3.17;;;2.42;;
9934;SDS011;5006;41.828;23.478;2023-02-18T05:49:40;3.90;;;2.40;;
9934;SDS011;5006;41.828;23.478;2023-02-18T05:50:46;4.20;;;2.50;;
9934;SDS011;5006;41.828;23.478;2023-02-18T05:51:51;8.32;;;7.20;;
9934;SDS011;5006;41.828;23.478;2023-02-18T05:52:57;6.63;;;4.93;;
9934;SDS011;5006;41.828;23.478;2023-02-18T05:54:03;11.38;;;9.23;;
9934;SDS011;5006;41.828;23.478;2023-02-18T05:55:09;7.85;;;5.88;;
9934;SDS011;5006;41.828;23.478;2023-02-18T05:56:14;3.35;;;2.05;;
9934;SDS011;5006;41.828;23.478;2023-02-18T05:57:19;6.32;;;3.78;;
9934;SDS011;5006;41.828;23.478;2023-02-18T05:58:25;11.00;;;6.80;;
9934;SDS011;5006;41.828;23.478;2023-02-18T05:59:30;8.93;;;6.78;;
9934;SDS011;5006;41.828;23.478;2023-02-18T06:00:36;8.27;;;4.53;;
9934;SDS011;5006;41.828;23.478;2023-02-18T06:01:40;7.43;;;4.80;;
9934;SDS011;5006;41.828;23.478;2023-02-18T06:02:46;9.80;;;5.20;;
9934;SDS011;5006;41.828;23.478;2023-02-18T06:03:51;8.85;;;5.60;;
9934;SDS011;5006;41.828;23.478;2023-02-18T06:04:57;10.32;;;5.97;;
9934;SDS011;5006;41.828;23.478;2023-02-18T06:06:01;8.50;;;5.40;;
9934;SDS011;5006;41.828;23.478;2023-02-18T06:07:07;9.02;;;6.15;;
9934;SDS011;5006;41.828;23.478;2023-02-18T06:08:12;6.65;;;5.20;;
9934;SDS011;5006;41.828;23.478;2023-02-18T06:09:19;5.35;;;3.97;;
9934;SDS011;5006;41.828;23.478;2023-02-18T06:10:24;7.40;;;4.90;;
9934;SDS011;5006;41.828;23.478;2023-02-18T06:11:30;4.35;;;3.65;;
9934;SDS011;5006;41.828;23.478;2023-02-18T06:12:34;4.32;;;3.00;;
9934;SDS011;5006;41.828;23.478;2023-02-18T06:13:40;7.85;;;3.75;;
9934;SDS011;5006;41.828;23.478;2023-02-18T06:14:45;5.78;;;3.85;;
9934;SDS011;5006;41.828;23.478;2023-02-18T06:15:51;5.65;;;3.92;;
9934;SDS011;5006;41.828;23.478;2023-02-18T06:16:57;4.88;;;4.38;;
9934;SDS011;5006;41.828;23.478;2023-02-18T06:18:03;3.45;;;2.80;;
9934;SDS011;5006;41.828;23.478;2023-02-18T06:19:07;3.17;;;2.40;;
9934;SDS011;5006;41.828;23.478;2023-02-18T06:20:13;2.45;;;2.25;;
9934;SDS011;5006;41.828;23.478;2023-02-18T06:21:18;4.93;;;4.35;;
9934;SDS011;5006;41.828;23.478;2023-02-18T06:22:24;6.22;;;4.38;;
9934;SDS011;5006;41.828;23.478;2023-02-18T06:23:28;7.78;;;3.90;;
9934;SDS011;5006;41.828;23.478;2023-02-18T06:24:35;3.20;;;2.10;;
9934;SDS011;5006;41.828;23.478;2023-02-18T06:25:40;3.08;;;2.70;;
9934;SDS011;5006;41.828;23.478;2023-02-18T06:26:46;4.65;;;3.60;;
9934;SDS011;5006;41.828;23.478;2023-02-18T06:27:50;4.00;;;3.10;;
9934;SDS011;5006;41.828;23.478;2023-02-18T06:28:56;4.82;;;3.35;;
9934;SDS011;5006;41.828;23.478;2023-02-18T06:30:00;5.20;;;3.70;;
9934;SDS011;5006;41.828;23.478;2023-02-18T06:31:07;5.97;;;4.22;;
9934;SDS011;5006;41.828;23.478;2023-02-18T06:32:12;7.60;;;5.45;;
9934;SDS011;5006;41.828;23.478;2023-02-18T06:33:17;6.97;;;5.28;;
9934;SDS011;5006;41.828;23.478;2023-02-18T06:34:22;6.68;;;5.43;;
9934;SDS011;5006;41.828;23.478;2023-02-18T06:35:28;5.85;;;4.43;;
9934;SDS011;5006;41.828;23.478;2023-02-18T06:36:33;7.95;;;5.53;;
9934;SDS011;5006;41.828;23.478;2023-02-18T06:37:39;7.55;;;5.60;;
9934;SDS011;5006;41.828;23.478;2023-02-18T06:38:43;7.85;;;5.35;;
9934;SDS011;5006;41.828;23.478;2023-02-18T06:39:51;10.60;;;8.25;;
9934;SDS011;5006;41.828;23.478;2023-02-18T06:40:56;8.27;;;6.10;;
9934;SDS011;5006;41.828;23.478;2023-02-18T06:42:02;8.73;;;5.78;;
9934;SDS011;5006;41.828;23.478;2023-02-18T06:43:07;8.65;;;6.57;;
9934;SDS011;5006;41.828;23.478;2023-02-18T06:44:13;6.50;;;5.30;;
9934;SDS011;5006;41.828;23.478;2023-02-18T06:45:19;13.52;;;7.80;;
9934;SDS011;5006;41.828;23.478;2023-02-18T06:46:25;11.38;;;8.25;;
9934;SDS011;5006;41.828;23.478;2023-02-18T06:47:31;7.68;;;5.70;;
9934;SDS011;5006;41.828;23.478;2023-02-18T06:48:36;10.70;;;6.75;;
9934;SDS011;5006;41.828;23.478;2023-02-18T06:49:42;11.88;;;8.15;;
9934;SDS011;5006;41.828;23.478;2023-02-18T06:50:48;11.43;;;9.32;;
9934;SDS011;5006;41.828;23.478;2023-02-18T06:51:53;11.20;;;9.40;;
9934;SDS011;5006;41.828;23.478;2023-02-18T06:53:06;16.73;;;10.10;;
9934;SDS011;5006;41.828;23.478;2023-02-18T06:54:11;11.93;;;9.57;;
9934;SDS011;5006;41.828;23.478;2023-02-18T06:55:18;17.50;;;12.48;;
9934;SDS011;5006;41.828;23.478;2023-02-18T06:56:23;14.27;;;10.63;;
9934;SDS011;5006;41.828;23.478;2023-02-18T06:57:29;17.92;;;11.88;;